Decoded Metar for LKPR (PRAGUE in CZECH REPUBLIC) (IATA:PRG) | Meteo·Mobile Aviation Weather
aviador You're here:

LKPR Decoded Metar

PRAGUE in CZECH REPUBLIC
Report Time2019-01-21 15:30:00
UTC Time2019-01-21 15:36:18
Flight Rules mvfr MVFR
Wind070° at 05 kt
W.Decomp.*RWY 06: 5.0 kt HW 0.7 kt RCW
RWY 04: 4.4 kt HW 2.3 kt RCW
RWY 12: 3.1 kt HW 3.9 kt LCW
W.Rank070° ranks 31
Current wind is below 070° avg. (6.0)
Visibility6000 m
Phenomena:N/A
Clouds:N/A
Expected CloudBase > 800 ft AGL from Temp-Dew spread
CeilingNone
Temp-4°C (ISA -17)
Dew Point-6°C (86% RH)
AAT-8.5°C
QNH1019 hPa
Density Alt-991 ft
Elevation1,198 ft
Report Wrong Elevation
Raw Report
METAR LKPR 211530Z 07005KT 6000 NSC M04/M06 Q1019 NOSIG=

Extra information for LKPR:More info

Metar Taf Metar & Taf Last 4 Metars F.Rules Stats Wind Profile Meteogram Temp Stats Airport Information Weather charts Add Link Nearby VenuesMetar ALERT Operation Metar Decoded Social comments